createdAt,value
2023-01-03T00:01:26.504Z,101653.41
2023-01-03T00:03:55.671Z,101644.88
2023-01-03T00:06:28.467Z,101650.00
2023-01-03T00:08:56.776Z,101657.91
2023-01-03T00:11:45.618Z,101651.03
2023-01-03T00:14:18.485Z,101661.69
2023-01-03T00:16:46.940Z,101668.75
2023-01-03T00:19:15.282Z,101672.34
2023-01-03T00:21:43.162Z,101673.25
2023-01-03T00:24:11.309Z,101685.34
2023-01-03T00:26:40.283Z,101682.78
2023-01-03T00:29:08.178Z,101686.38
2023-01-03T00:31:36.350Z,101686.66
2023-01-03T00:34:03.829Z,101679.63
2023-01-03T00:36:31.177Z,101683.94
2023-01-03T00:38:58.488Z,101697.19
2023-01-03T00:41:26.087Z,101692.69
2023-01-03T00:43:53.342Z,101688.19
2023-01-03T00:46:21.473Z,101696.22
2023-01-03T00:48:49.017Z,101694.75
2023-01-03T00:51:21.715Z,101709.84
2023-01-03T00:53:50.594Z,101713.50
2023-01-03T00:56:21.067Z,101718.91
2023-01-03T00:58:48.665Z,101719.03
2023-01-03T01:01:27.490Z,101726.06
2023-01-03T01:04:01.676Z,101727.91
2023-01-03T01:06:34.850Z,101746.41
2023-01-03T01:09:04.077Z,101741.97
2023-01-03T01:11:31.557Z,101744.47
2023-01-03T01:13:58.933Z,101754.16
2023-01-03T01:16:29.386Z,101763.03
2023-01-03T01:18:58.385Z,101763.88
2023-01-03T01:21:29.783Z,101767.47
2023-01-03T01:23:57.947Z,101772.84
2023-01-03T01:26:25.642Z,101776.41
2023-01-03T01:28:54.034Z,101780.84
2023-01-03T01:31:23.850Z,101789.66
2023-01-03T01:33:52.164Z,101793.22
2023-01-03T01:36:27.959Z,101794.09
2023-01-03T01:38:57.278Z,101807.94
2023-01-03T01:41:42.906Z,101801.75
2023-01-03T01:44:49.256Z,101805.16
2023-01-03T01:47:43.626Z,101810.44
2023-01-03T01:50:19.812Z,101807.03
2023-01-03T01:52:52.288Z,101814.19
2023-01-03T01:55:22.049Z,101815.09
2023-01-03T01:57:49.253Z,101823.00
2023-01-03T02:00:16.556Z,101809.84
2023-01-03T02:02:45.098Z,101817.66
2023-01-03T02:05:12.683Z,101819.41
2023-01-03T02:07:40.385Z,101815.97
2023-01-03T02:10:08.070Z,101821.38
2023-01-03T02:13:01.226Z,101825.00
2023-01-03T02:15:50.488Z,101829.44
2023-01-03T02:18:29.498Z,101826.03
2023-01-03T02:21:21.645Z,101830.50
2023-01-03T02:24:16.620Z,101836.66
2023-01-03T02:27:15.832Z,101837.59
2023-01-03T02:29:59.651Z,101851.63
2023-01-03T02:32:50.714Z,101843.78
2023-01-03T02:35:22.944Z,101853.41
2023-01-03T02:37:59.309Z,101849.03
2023-01-03T02:40:53.256Z,101861.34
2023-01-03T02:43:38.349Z,101860.44
2023-01-03T02:46:14.087Z,101862.22
2023-01-03T02:48:45.019Z,101871.84
2023-01-03T02:51:41.253Z,101875.34
2023-01-03T02:54:12.251Z,101878.91
2023-01-03T02:56:55.632Z,101878.84
2023-01-03T02:59:36.726Z,101881.47
2023-01-03T03:02:05.401Z,101883.28
2023-01-03T03:04:35.157Z,101885.00
2023-01-03T03:07:09.498Z,101891.16
2023-01-03T03:09:56.658Z,101885.06
2023-01-03T03:12:42.905Z,101891.19
2023-01-03T03:15:12.045Z,101881.63
2023-01-03T03:17:39.331Z,101885.13
2023-01-03T03:20:34.019Z,101888.63
2023-01-03T03:23:41.100Z,101882.50
2023-01-03T03:26:11.327Z,101897.38
2023-01-03T03:28:43.406Z,101892.16
2023-01-03T03:31:25.296Z,101901.75
2023-01-03T03:34:04.252Z,101891.28
2023-01-03T03:36:54.068Z,101910.50
2023-01-03T03:39:41.412Z,101910.53
2023-01-03T03:42:49.573Z,101909.59
2023-01-03T03:45:33.300Z,101912.25
2023-01-03T03:48:14.075Z,101907.03
2023-01-03T03:50:49.603Z,101910.50
2023-01-03T03:53:18.348Z,101921.84
2023-01-03T03:56:05.648Z,101920.13
2023-01-03T03:58:39.998Z,101914.88
2023-01-03T04:01:09.078Z,101924.50
2023-01-03T04:03:37.429Z,101923.63
2023-01-03T04:06:10.200Z,101923.59
2023-01-03T04:08:37.618Z,101940.19
2023-01-03T04:11:07.719Z,101942.78
2023-01-03T04:13:36.519Z,101949.78
2023-01-03T04:16:04.499Z,101953.25
2023-01-03T04:18:31.718Z,101958.47
2023-01-03T04:20:59.027Z,101963.72
2023-01-03T04:23:26.234Z,101962.84
2023-01-03T04:25:53.466Z,101963.69
2023-01-03T04:28:20.694Z,101959.31
2023-01-03T04:30:48.154Z,101965.38
2023-01-03T04:33:15.336Z,101976.75
2023-01-03T04:35:42.508Z,101966.25
2023-01-03T04:38:10.218Z,101968.00
2023-01-03T04:40:40.625Z,101978.41
2023-01-03T04:43:26.577Z,101983.63
2023-01-03T04:45:53.821Z,101990.63
2023-01-03T04:48:21.062Z,101991.47
2023-01-03T04:50:55.837Z,101995.84
2023-01-03T04:53:24.823Z,102000.16
2023-01-03T04:55:53.207Z,102001.91
2023-01-03T04:58:20.954Z,102001.03
2023-01-03T05:00:48.250Z,101997.53
2023-01-03T05:03:15.560Z,102000.16
2023-01-03T05:05:42.827Z,102011.47
2023-01-03T05:08:11.656Z,102014.06
2023-01-03T05:10:39.753Z,102021.88
2023-01-03T05:13:07.365Z,102018.44
2023-01-03T05:15:38.671Z,102022.84
2023-01-03T05:18:06.358Z,102031.53
2023-01-03T05:20:55.628Z,102029.78
2023-01-03T05:23:41.693Z,102026.25
2023-01-03T05:26:18.765Z,102030.59
2023-01-03T05:28:49.306Z,102028.81
2023-01-03T05:31:19.802Z,102035.72
2023-01-03T05:33:47.143Z,102031.41
2023-01-03T05:36:16.476Z,102038.28
2023-01-03T05:38:43.979Z,102040.00
2023-01-03T05:41:13.778Z,102042.63
2023-01-03T05:43:40.925Z,102050.47
2023-01-03T05:46:08.216Z,102039.13
2023-01-03T05:48:35.444Z,102049.56
2023-01-03T05:51:02.658Z,102050.44
2023-01-03T05:53:29.852Z,102053.91
2023-01-03T05:55:57.055Z,102053.03
2023-01-03T05:58:24.247Z,102053.88
2023-01-03T06:00:51.777Z,102055.63
2023-01-03T06:03:18.970Z,102056.44
2023-01-03T06:05:50.095Z,102056.47
2023-01-03T06:08:17.867Z,102055.59
2023-01-03T06:10:45.250Z,102059.91
2023-01-03T06:13:12.858Z,102066.84
2023-01-03T06:15:40.055Z,102064.19
2023-01-03T06:18:07.240Z,102070.31
2023-01-03T06:20:34.674Z,102075.50
2023-01-03T06:23:01.840Z,102062.38
2023-01-03T06:25:29.060Z,102071.97
2023-01-03T06:27:56.269Z,102072.78
2023-01-03T06:30:23.476Z,102075.41
2023-01-03T06:32:50.881Z,102077.94
2023-01-03T06:35:18.079Z,102079.72
2023-01-03T06:37:45.261Z,102078.84
2023-01-03T06:40:12.634Z,102079.69
2023-01-03T06:42:39.802Z,102081.38
2023-01-03T06:45:26.168Z,102074.44
2023-01-03T06:48:12.012Z,102081.34
2023-01-03T06:50:59.505Z,102092.63
2023-01-03T06:53:37.675Z,102090.00
2023-01-03T06:56:05.538Z,102092.53
2023-01-03T06:58:32.732Z,102105.56
2023-01-03T07:01:02.640Z,102107.34
2023-01-03T07:03:31.211Z,102103.84
2023-01-03T07:05:58.391Z,102109.91
2023-01-03T07:08:25.605Z,102116.78
2023-01-03T07:10:52.916Z,102113.34
2023-01-03T07:13:55.483Z,102122.06
2023-01-03T07:16:22.825Z,102126.38
2023-01-03T07:18:55.034Z,102129.81
2023-01-03T07:21:23.828Z,102141.94
2023-01-03T07:23:58.244Z,102137.59
2023-01-03T07:26:26.018Z,102143.69
2023-01-03T07:28:53.501Z,102139.34
2023-01-03T07:31:21.015Z,102141.03
2023-01-03T07:33:48.319Z,102143.59
2023-01-03T07:36:16.889Z,102143.66
2023-01-03T07:38:45.196Z,102152.31
2023-01-03T07:41:13.199Z,102149.66
2023-01-03T07:43:43.136Z,102153.13
2023-01-03T07:46:17.930Z,102149.66
2023-01-03T07:48:46.694Z,102148.78
2023-01-03T07:51:15.854Z,102154.91
2023-01-03T07:53:43.544Z,102155.81
2023-01-03T07:56:14.496Z,102161.00
2023-01-03T07:58:43.390Z,102166.28
2023-01-03T08:01:18.656Z,102172.47
2023-01-03T08:03:46.457Z,102162.97
2023-01-03T08:06:15.898Z,102174.22
2023-01-03T08:08:43.402Z,102175.19
2023-01-03T08:11:33.311Z,102176.13
2023-01-03T08:14:00.765Z,102170.94
2023-01-03T08:16:28.210Z,102179.69
2023-01-03T08:18:55.476Z,102180.59
2023-01-03T08:21:22.950Z,102185.91
2023-01-03T08:23:50.648Z,102188.56
2023-01-03T08:26:18.120Z,102190.41
2023-01-03T08:28:45.579Z,102193.09
2023-01-03T08:31:21.403Z,102198.38
2023-01-03T08:33:57.985Z,102201.00
2023-01-03T08:36:27.073Z,102196.69
2023-01-03T08:39:02.601Z,102205.53
2023-01-03T08:41:32.000Z,102202.97
2023-01-03T08:44:00.138Z,102209.13
2023-01-03T08:46:27.679Z,102213.59
2023-01-03T08:48:55.771Z,102220.59
2023-01-03T08:51:26.530Z,102220.63
2023-01-03T08:53:53.991Z,102221.50
2023-01-03T08:56:21.384Z,102219.81
2023-01-03T08:58:48.594Z,102213.69
2023-01-03T09:01:16.118Z,102216.31
2023-01-03T09:03:43.646Z,102217.25
2023-01-03T09:06:13.865Z,102209.41
2023-01-03T09:08:41.199Z,102219.09
2023-01-03T09:11:09.063Z,102224.34
2023-01-03T09:13:37.378Z,102233.13
2023-01-03T09:16:06.869Z,102228.81
2023-01-03T09:18:34.962Z,102237.66
2023-01-03T09:21:03.306Z,102239.41
2023-01-03T09:23:31.469Z,102246.53
2023-01-03T09:26:01.928Z,102236.13
2023-01-03T09:28:33.456Z,102243.13
2023-01-03T09:31:00.833Z,102241.44
2023-01-03T09:33:28.302Z,102234.47
2023-01-03T09:35:56.070Z,102235.31
2023-01-03T09:38:24.189Z,102238.81
2023-01-03T09:41:03.143Z,102244.94
2023-01-03T09:43:36.995Z,102246.69
2023-01-03T09:46:06.046Z,102250.19
2023-01-03T09:48:35.561Z,102256.31
2023-01-03T09:51:19.764Z,102252.81
2023-01-03T09:54:08.587Z,102260.69
2023-01-03T09:56:54.268Z,102253.69
2023-01-03T09:59:40.437Z,102250.19
2023-01-03T10:02:51.502Z,102243.19
2023-01-03T10:06:02.143Z,102248.44
2023-01-03T10:08:35.582Z,102251.94
2023-01-03T10:11:24.520Z,102251.94
2023-01-03T10:14:03.489Z,102246.69
2023-01-03T10:16:59.736Z,102250.13
2023-01-03T10:20:07.965Z,102243.91
2023-01-03T10:22:37.211Z,102245.56
2023-01-03T10:25:11.930Z,102249.81
2023-01-03T10:27:45.540Z,102253.25
2023-01-03T10:30:58.295Z,102243.59
2023-01-03T10:33:33.366Z,102249.75
2023-01-03T10:36:01.278Z,102248.06
2023-01-03T10:38:29.393Z,102246.31
2023-01-03T10:41:01.796Z,102244.56
2023-01-03T10:43:46.225Z,102241.06
2023-01-03T10:46:25.424Z,102242.75
2023-01-03T10:49:25.830Z,102241.91
2023-01-03T10:52:03.842Z,102240.94
2023-01-03T10:55:15.830Z,102241.00
2023-01-03T10:57:48.825Z,102239.34
2023-01-03T11:00:36.234Z,102238.44
2023-01-03T11:03:11.529Z,102235.84
2023-01-03T11:05:40.694Z,102241.06
2023-01-03T11:08:20.210Z,102243.63
2023-01-03T11:10:56.577Z,102236.47
2023-01-03T11:13:34.307Z,102231.13
2023-01-03T11:16:03.889Z,102222.56
2023-01-03T11:18:31.665Z,102228.72
2023-01-03T11:21:18.160Z,102241.03
2023-01-03T11:23:56.417Z,102240.13
2023-01-03T11:26:50.240Z,102233.94
2023-01-03T11:29:45.051Z,102246.22
2023-01-03T11:32:28.462Z,102248.97
2023-01-03T11:35:29.515Z,102251.59
2023-01-03T11:38:11.489Z,102235.78
2023-01-03T11:41:03.427Z,102236.66
2023-01-03T11:43:54.243Z,102238.38
2023-01-03T11:46:52.416Z,102238.34
2023-01-03T11:49:44.561Z,102230.56
2023-01-03T11:52:45.823Z,102235.06
2023-01-03T11:55:40.477Z,102232.47
2023-01-03T11:58:42.611Z,102237.75
2023-01-03T12:01:24.963Z,102241.19
2023-01-03T12:04:05.451Z,102237.72
2023-01-03T12:07:14.303Z,102242.94
2023-01-03T12:09:57.701Z,102232.47
2023-01-03T12:12:30.128Z,102239.44
2023-01-03T12:15:15.129Z,102230.75
2023-01-03T12:17:54.617Z,102229.94
2023-01-03T12:20:37.556Z,102231.75
2023-01-03T12:23:31.581Z,102234.38
2023-01-03T12:26:05.472Z,102231.78
2023-01-03T12:28:51.286Z,102235.25
2023-01-03T12:31:20.433Z,102230.91
2023-01-03T12:34:05.911Z,102238.78
2023-01-03T12:36:45.396Z,102237.88
2023-01-03T12:39:36.998Z,102237.00
2023-01-03T12:42:38.269Z,102241.31
2023-01-03T12:45:08.521Z,102235.16
2023-01-03T12:47:59.650Z,102229.13
2023-01-03T12:50:39.024Z,102228.22
2023-01-03T12:53:23.765Z,102228.19
2023-01-03T12:56:09.081Z,102224.75
2023-01-03T12:59:01.173Z,102221.31
2023-01-03T13:02:04.771Z,102230.94
2023-01-03T13:04:34.930Z,102225.69
2023-01-03T13:07:18.903Z,102223.06
2023-01-03T13:10:00.776Z,102207.38
2023-01-03T13:12:35.106Z,102211.75
2023-01-03T13:15:36.208Z,102216.09
2023-01-03T13:18:21.900Z,102218.72
2023-01-03T13:20:50.604Z,102206.47
2023-01-03T13:23:32.753Z,102209.97
2023-01-03T13:26:21.484Z,102205.59
2023-01-03T13:28:48.884Z,102196.00
2023-01-03T13:31:19.434Z,102206.47
2023-01-03T13:33:52.474Z,102205.56
2023-01-03T13:36:19.791Z,102220.44
2023-01-03T13:38:47.335Z,102218.66
2023-01-03T13:41:38.145Z,102211.69
2023-01-03T13:44:17.741Z,102213.41
2023-01-03T13:46:45.226Z,102208.19
2023-01-03T13:49:27.891Z,102206.41
2023-01-03T13:51:59.473Z,102215.16
2023-01-03T13:54:58.025Z,102211.69
2023-01-03T13:57:31.376Z,102211.69
2023-01-03T13:59:59.953Z,102214.28
2023-01-03T14:02:53.593Z,102206.44
2023-01-03T14:05:45.483Z,102216.00
2023-01-03T14:08:41.727Z,102205.50
2023-01-03T14:11:15.970Z,102215.06
2023-01-03T14:13:49.074Z,102217.72
2023-01-03T14:16:31.046Z,102220.34
2023-01-03T14:19:02.726Z,102222.09
2023-01-03T14:21:48.765Z,102215.94
2023-01-03T14:24:20.571Z,102214.19
2023-01-03T14:26:48.282Z,102222.91
2023-01-03T14:29:20.521Z,102225.53
2023-01-03T14:31:51.406Z,102215.03
2023-01-03T14:34:35.854Z,102223.75
2023-01-03T14:37:24.939Z,102223.78
2023-01-03T14:39:56.816Z,102227.19
2023-01-03T14:42:24.379Z,102228.06
2023-01-03T14:45:03.358Z,102224.56
2023-01-03T14:47:41.582Z,102228.91
2023-01-03T14:50:30.091Z,102234.97
2023-01-03T14:52:59.110Z,102227.09
2023-01-03T14:55:29.356Z,102229.69
2023-01-03T14:57:57.452Z,102227.00
2023-01-03T15:00:33.369Z,102227.88
2023-01-03T15:03:02.243Z,102224.34
2023-01-03T15:05:35.084Z,102229.56
2023-01-03T15:08:31.371Z,102233.88
2023-01-03T15:11:08.222Z,102236.50
2023-01-03T15:13:41.241Z,102228.56
2023-01-03T15:16:31.367Z,102236.41
2023-01-03T15:19:21.423Z,102238.97
2023-01-03T15:21:49.189Z,102235.41
2023-01-03T15:24:22.775Z,102237.13
2023-01-03T15:26:53.710Z,102237.13
2023-01-03T15:29:25.072Z,102246.66
2023-01-03T15:32:01.711Z,102244.00
2023-01-03T15:34:41.688Z,102237.84
2023-01-03T15:37:22.475Z,102248.22
2023-01-03T15:39:54.729Z,102246.41
2023-01-03T15:42:45.281Z,102246.34
2023-01-03T15:45:35.410Z,102245.41
2023-01-03T15:48:04.985Z,102246.19
2023-01-03T15:50:51.421Z,102246.13
2023-01-03T15:53:24.203Z,102255.63
2023-01-03T15:55:54.657Z,102258.13
2023-01-03T15:58:23.446Z,102259.84
2023-01-03T16:00:50.751Z,102253.72
2023-01-03T16:03:20.301Z,102258.88
2023-01-03T16:05:47.652Z,102259.63
2023-01-03T16:08:31.079Z,102257.84
2023-01-03T16:11:00.030Z,102262.16
2023-01-03T16:13:29.879Z,102257.75
2023-01-03T16:15:59.242Z,102251.63
2023-01-03T16:18:34.954Z,102251.38
2023-01-03T16:21:02.470Z,102239.22
2023-01-03T16:23:31.592Z,102251.44
2023-01-03T16:25:58.798Z,102249.72
2023-01-03T16:28:26.710Z,102245.41
2023-01-03T16:31:16.394Z,102247.13
2023-01-03T16:33:44.207Z,102253.16
2023-01-03T16:36:37.338Z,102252.38
2023-01-03T16:39:06.787Z,102258.44
2023-01-03T16:41:34.240Z,102263.59
2023-01-03T16:44:04.265Z,102260.91
2023-01-03T16:46:31.618Z,102260.03
2023-01-03T16:48:59.954Z,102253.16
2023-01-03T16:51:32.697Z,102252.22
2023-01-03T16:54:00.890Z,102260.00
2023-01-03T16:56:28.616Z,102251.09
2023-01-03T16:58:56.115Z,102252.06
2023-01-03T17:01:23.703Z,102249.56
2023-01-03T17:03:51.585Z,102258.38
2023-01-03T17:06:37.477Z,102260.19
2023-01-03T17:09:21.157Z,102267.22
2023-01-03T17:11:48.682Z,102261.13
2023-01-03T17:14:18.697Z,102262.72
2023-01-03T17:16:46.540Z,102265.38
2023-01-03T17:20:01.585Z,102260.81
2023-01-03T17:22:07.360Z,102265.13
2023-01-03T17:24:34.762Z,102266.97
2023-01-03T17:27:04.226Z,102264.16
2023-01-03T17:29:31.679Z,102263.28
2023-01-03T17:31:59.097Z,102268.34
2023-01-03T17:34:30.121Z,102265.59
2023-01-03T17:36:58.828Z,102267.28
2023-01-03T17:39:27.130Z,102264.72
2023-01-03T17:42:12.566Z,102277.00
2023-01-03T17:44:40.271Z,102279.69
2023-01-03T17:47:35.186Z,102270.34
2023-01-03T17:50:02.851Z,102264.44
2023-01-03T17:52:34.001Z,102265.34
2023-01-03T17:55:04.606Z,102262.81
2023-01-03T17:57:32.771Z,102264.53
2023-01-03T18:00:00.392Z,102261.81
2023-01-03T18:02:28.478Z,102256.59
2023-01-03T18:07:45.678Z,102254.91
2023-01-03T18:10:18.395Z,102252.13
2023-01-03T18:12:45.675Z,102248.50
2023-01-03T18:15:21.433Z,102244.94
2023-01-03T18:17:49.592Z,102246.63
2023-01-03T18:20:18.435Z,102247.25
2023-01-03T18:22:46.982Z,102239.47
2023-01-03T18:25:22.743Z,102241.25
2023-01-03T18:28:01.483Z,102249.81
2023-01-03T18:30:29.098Z,102246.06
2023-01-03T18:32:56.419Z,102244.34
2023-01-03T18:35:29.579Z,102251.28
2023-01-03T18:38:00.126Z,102245.94
2023-01-03T18:40:27.807Z,102247.72
2023-01-03T18:43:09.582Z,102240.66
2023-01-03T18:45:37.983Z,102243.22
2023-01-03T18:48:05.623Z,102238.75
2023-01-03T18:50:32.988Z,102242.19
2023-01-03T18:53:04.060Z,102253.41
2023-01-03T18:55:33.935Z,102241.16
2023-01-03T18:58:08.096Z,102247.09
2023-01-03T19:00:35.369Z,102247.84
2023-01-03T19:03:13.436Z,102246.13
2023-01-03T19:05:40.877Z,102242.72
2023-01-03T19:08:09.194Z,102244.56
2023-01-03T19:10:36.456Z,102234.25
2023-01-03T19:13:03.706Z,102240.22
2023-01-03T19:15:31.036Z,102242.81
2023-01-03T19:18:01.432Z,102240.28
2023-01-03T19:20:28.782Z,102238.53
2023-01-03T19:22:56.222Z,102244.63
2023-01-03T19:25:25.393Z,102240.31
2023-01-03T19:27:54.593Z,102229.22
2023-01-03T19:30:38.150Z,102234.56
2023-01-03T19:33:08.624Z,102233.00
2023-01-03T19:35:35.858Z,102238.38
2023-01-03T19:38:03.322Z,102222.78
2023-01-03T19:40:32.836Z,102224.53
2023-01-03T19:43:00.657Z,102222.72
2023-01-03T19:45:36.393Z,102226.31
2023-01-03T19:48:12.803Z,102221.97
2023-01-03T19:50:40.696Z,102219.31
2023-01-03T19:53:07.905Z,102209.03
2023-01-03T19:55:42.612Z,102207.25
2023-01-03T19:58:17.761Z,102203.81
2023-01-03T20:00:47.875Z,102196.88
2023-01-03T20:03:38.966Z,102203.91
2023-01-03T20:06:08.704Z,102205.56
2023-01-03T20:08:35.903Z,102204.59
2023-01-03T20:11:03.862Z,102198.66
2023-01-03T20:13:32.862Z,102191.59
2023-01-03T20:16:02.050Z,102188.06
2023-01-03T20:18:30.117Z,102185.25
2023-01-03T20:21:22.881Z,102197.00
2023-01-03T20:23:55.506Z,102183.16
2023-01-03T20:26:25.817Z,102187.31
2023-01-03T20:28:54.786Z,102179.34
2023-01-03T20:31:22.542Z,102182.94
2023-01-03T20:33:50.232Z,102187.06
2023-01-03T20:36:25.573Z,102187.38
2023-01-03T20:38:54.257Z,102190.84
2023-01-03T20:41:23.587Z,102191.91
2023-01-03T20:43:52.356Z,102185.91
2023-01-03T20:46:21.377Z,102183.50
2023-01-03T20:48:56.118Z,102182.56
2023-01-03T20:51:26.871Z,102175.81
2023-01-03T20:53:55.454Z,102176.69
2023-01-03T20:56:23.327Z,102181.91
2023-01-03T20:58:50.762Z,102168.00
2023-01-03T21:01:18.228Z,102169.69
2023-01-03T21:03:45.746Z,102170.63
2023-01-03T21:06:20.732Z,102167.22
2023-01-03T21:08:54.820Z,102157.72
2023-01-03T21:11:28.971Z,102157.81
2023-01-03T21:13:57.697Z,102165.66
2023-01-03T21:16:36.724Z,102168.31
2023-01-03T21:19:09.741Z,102168.06
2023-01-03T21:21:37.060Z,102169.06
2023-01-03T21:24:05.037Z,102167.44
2023-01-03T21:26:32.402Z,102160.38
2023-01-03T21:29:03.268Z,102161.28
2023-01-03T21:31:30.889Z,102157.81
2023-01-03T21:33:58.252Z,102155.38
2023-01-03T21:36:33.578Z,102149.22
2023-01-03T21:39:03.057Z,102143.03
2023-01-03T21:41:32.727Z,102149.06
2023-01-03T21:44:07.412Z,102153.56
2023-01-03T21:46:34.840Z,102152.72
2023-01-03T21:49:02.446Z,102158.63
2023-01-03T21:51:38.325Z,102158.00
2023-01-03T21:54:07.281Z,102144.00
2023-01-03T21:56:37.626Z,102143.09
2023-01-03T21:59:04.992Z,102137.03
2023-01-03T22:01:52.273Z,102141.38
2023-01-03T22:04:19.519Z,102147.47
2023-01-03T22:06:46.901Z,102137.97
2023-01-03T22:09:34.033Z,102143.03
2023-01-03T22:12:01.192Z,102135.03
2023-01-03T22:14:28.363Z,102146.28
2023-01-03T22:16:55.576Z,102145.38
2023-01-03T22:19:22.795Z,102138.31
2023-01-03T22:21:50.141Z,102144.50
2023-01-03T22:24:17.304Z,102142.81
2023-01-03T22:26:44.489Z,102136.78
2023-01-03T22:29:12.392Z,102129.88
2023-01-03T22:31:39.628Z,102127.31
2023-01-03T22:34:06.785Z,102120.19
2023-01-03T22:36:33.963Z,102117.50
2023-01-03T22:39:01.161Z,102114.69
2023-01-03T22:41:28.560Z,102111.09
2023-01-03T22:43:55.819Z,102113.69
2023-01-03T22:46:24.154Z,102114.59
2023-01-03T22:48:51.612Z,102117.97
2023-01-03T22:51:19.035Z,102103.06
2023-01-03T22:53:49.010Z,102104.91
2023-01-03T22:56:17.459Z,102105.69
2023-01-03T22:58:45.721Z,102103.94
2023-01-03T23:01:19.313Z,102097.72
2023-01-03T23:03:47.959Z,102101.19
2023-01-03T23:06:17.520Z,102101.16
2023-01-03T23:08:45.437Z,102096.81
2023-01-03T23:11:34.660Z,102095.81
2023-01-03T23:14:04.042Z,102083.53
2023-01-03T23:16:32.246Z,102085.38
2023-01-03T23:19:03.759Z,102087.09
2023-01-03T23:21:30.970Z,102079.97
2023-01-03T23:23:58.475Z,102076.50
2023-01-03T23:26:26.124Z,102072.09
2023-01-03T23:28:57.433Z,102051.38
2023-01-03T23:31:27.235Z,102044.38
2023-01-03T23:33:55.493Z,102046.28
2023-01-03T23:36:22.690Z,102040.31
2023-01-03T23:38:50.106Z,102040.41
2023-01-03T23:41:17.871Z,102044.78
2023-01-03T23:43:45.212Z,102038.72
2023-01-03T23:46:20.062Z,102035.34
2023-01-03T23:48:47.733Z,102037.94
2023-01-03T23:51:15.794Z,102034.56
2023-01-03T23:53:43.789Z,102035.38
2023-01-03T23:56:14.581Z,102032.03
2023-01-03T23:58:42.025Z,102022.41
